Time;durP1;ratioP1;P1;durP2;ratioP2;P2;SDS_P1;SDS_P2;PMS_P1;PMS_P2;Temp;Humidity;BMP_temperature;BMP_pressure;BME280_temperature;BME280_humidity;BME280_pressure;Samples;Min_cycle;Max_cycle;Signal;HPM_P1;HPM_P2
2022/05/13 00:02:07;;;;;;;3.75;0.40;;;10.70;99.60;;;;;;4974911;28;20546;-87
2022/05/13 00:04:33;;;;;;;6.00;0.70;;;10.70;99.80;;;;;;4973671;28;20038;-87
2022/05/13 00:06:59;;;;;;;9.02;0.63;;;10.60;99.90;;;;;;4958144;28;20037;-87
2022/05/13 00:12:09;;;;;;;8.32;0.60;;;10.60;99.90;;;;;;4979543;28;20041;-86
2022/05/13 00:14:35;;;;;;;4.45;0.70;;;10.60;99.90;;;;;;4962229;28;20031;-86
2022/05/13 00:17:00;;;;;;;4.70;0.50;;;10.50;99.90;;;;;;4960251;28;20026;-85
2022/05/13 00:19:26;;;;;;;7.10;0.70;;;10.50;99.90;;;;;;4967841;28;20054;-85
2022/05/13 00:21:51;;;;;;;9.93;0.60;;;10.50;99.90;;;;;;4971116;28;20031;-84
2022/05/13 00:24:17;;;;;;;6.05;0.40;;;10.40;99.90;;;;;;4968505;28;20051;-85
2022/05/13 00:26:42;;;;;;;6.28;0.55;;;10.40;99.90;;;;;;4962380;28;20030;-85
2022/05/13 00:29:08;;;;;;;3.13;0.40;;;10.40;99.90;;;;;;4975423;28;20031;-85
2022/05/13 00:31:33;;;;;;;6.82;0.52;;;10.30;99.90;;;;;;4973973;28;20105;-84
2022/05/13 00:33:59;;;;;;;6.20;0.50;;;10.30;99.90;;;;;;4960450;28;20030;-85
2022/05/13 00:36:24;;;;;;;5.10;0.40;;;10.20;99.90;;;;;;4969847;28;20027;-85
2022/05/13 00:38:50;;;;;;;4.40;0.50;;;10.30;99.90;;;;;;4968429;28;20037;-85
2022/05/13 00:41:16;;;;;;;7.95;0.60;;;10.20;99.90;;;;;;4973425;28;20046;-84
2022/05/13 00:43:51;;;;;;;3.38;0.50;;;10.20;99.90;;;;;;4978047;28;20098;-85
2022/05/13 00:46:16;;;;;;;7.38;0.60;;;10.20;99.90;;;;;;4976842;28;20057;-85
2022/05/13 00:48:43;;;;;;;8.20;0.52;;;10.20;99.90;;;;;;4968129;28;20112;-85
2022/05/13 00:51:11;;;;;;;5.70;0.50;;;10.20;99.90;;;;;;4978957;28;20037;-85
2022/05/13 00:53:38;;;;;;;5.15;0.47;;;10.20;99.90;;;;;;4977944;28;20030;-85
2022/05/13 00:56:04;;;;;;;5.65;0.70;;;10.10;99.90;;;;;;4974145;28;20038;-86
2022/05/13 00:58:33;;;;;;;8.82;0.60;;;10.10;99.90;;;;;;4978721;28;20094;-85
2022/05/13 01:00:58;;;;;;;5.15;0.45;;;10.10;99.90;;;;;;4962728;28;20038;-85
2022/05/13 01:03:24;;;;;;;5.35;0.50;;;10.10;99.90;;;;;;4963240;28;20031;-84
2022/05/13 01:05:54;;;;;;;6.60;0.70;;;10.10;99.90;;;;;;4978156;28;20038;-84
2022/05/13 01:08:20;;;;;;;4.75;0.50;;;10.10;99.90;;;;;;4967917;28;20490;-85
2022/05/13 01:10:47;;;;;;;6.72;0.70;;;10.10;99.90;;;;;;4964023;28;20126;-85
2022/05/13 01:13:18;;;;;;;4.85;0.68;;;10.10;99.90;;;;;;4971601;28;20081;-85
2022/05/13 01:15:43;;;;;;;6.55;0.70;;;10.10;99.90;;;;;;4977778;28;20030;-85
2022/05/13 01:18:10;;;;;;;5.57;0.65;;;10.10;99.90;;;;;;4977120;28;20118;-85
2022/05/13 01:20:54;;;;;;;7.40;1.40;;;10.00;99.90;;;;;;4988469;28;20041;-85
2022/05/13 01:23:23;;;;;;;5.50;0.57;;;10.10;99.90;;;;;;4975748;28;20061;-85
2022/05/13 01:26:01;;;;;;;5.22;0.85;;;10.00;99.90;;;;;;4975585;28;20031;-85
2022/05/13 01:28:36;;;;;;;9.77;0.98;;;10.00;99.90;;;;;;4972415;28;20490;-84
2022/05/13 01:31:07;;;;;;;4.70;0.73;;;10.00;99.90;;;;;;4973795;28;20058;-85
2022/05/13 01:33:33;;;;;;;5.40;0.82;;;9.90;99.90;;;;;;4970938;28;20479;-86
2022/05/13 01:36:00;;;;;;;7.07;0.88;;;10.00;99.90;;;;;;4958380;28;20041;-85
2022/05/13 01:38:31;;;;;;;6.78;0.80;;;10.00;99.90;;;;;;4958712;28;20082;-85
2022/05/13 01:40:57;;;;;;;4.07;0.70;;;10.10;99.90;;;;;;4958965;28;20038;-85
2022/05/13 01:43:23;;;;;;;5.20;0.80;;;10.10;99.90;;;;;;4973510;28;20124;-85
2022/05/13 01:45:49;;;;;;;11.40;0.90;;;10.20;99.90;;;;;;4978719;28;20031;-85
2022/05/13 01:48:15;;;;;;;5.50;0.70;;;10.20;99.90;;;;;;4971101;28;20153;-85
2022/05/13 01:50:40;;;;;;;5.97;1.00;;;10.30;99.90;;;;;;4990260;28;20125;-85
2022/05/13 01:53:08;;;;;;;3.58;0.60;;;10.40;99.90;;;;;;4982335;28;20097;-87
2022/05/13 01:55:34;;;;;;;11.70;1.55;;;10.50;99.90;;;;;;4964611;28;20027;-87
2022/05/13 01:58:00;;;;;;;9.10;0.70;;;10.50;99.90;;;;;;4965376;28;20026;-85
2022/05/13 02:00:27;;;;;;;6.63;0.60;;;10.50;99.90;;;;;;4973467;28;20066;-85
2022/05/13 02:05:37;;;;;;;8.55;1.20;;;10.60;99.90;;;;;;4993746;28;20069;-86
2022/05/13 02:08:02;;;;;;;6.00;0.75;;;10.60;99.90;;;;;;4975663;28;20129;-85
2022/05/13 02:10:28;;;;;;;7.32;1.08;;;10.60;99.90;;;;;;4966002;28;20035;-84
2022/05/13 02:12:54;;;;;;;14.23;2.03;;;10.60;99.90;;;;;;4959963;28;20023;-86
2022/05/13 02:15:20;;;;;;;10.27;1.35;;;10.60;99.90;;;;;;4979050;28;20026;-86
2022/05/13 02:17:45;;;;;;;8.93;1.20;;;10.50;99.90;;;;;;4967155;28;20479;-86
2022/05/13 02:20:11;;;;;;;10.68;1.50;;;10.50;99.90;;;;;;4968158;28;20137;-86
2022/05/13 02:22:37;;;;;;;6.32;1.33;;;10.50;99.90;;;;;;4964945;28;20046;-86
2022/05/13 02:25:03;;;;;;;9.95;1.55;;;10.50;99.90;;;;;;4976158;28;20026;-85
2022/05/13 02:27:29;;;;;;;5.95;1.05;;;10.50;99.90;;;;;;4988715;28;20096;-86
2022/05/13 02:29:54;;;;;;;6.13;1.17;;;10.50;99.90;;;;;;4968452;28;20027;-85
2022/05/13 02:32:20;;;;;;;5.97;1.10;;;10.50;99.90;;;;;;4986622;28;20022;-86
2022/05/13 02:34:46;;;;;;;6.70;1.25;;;10.50;99.90;;;;;;4976886;28;20030;-86
2022/05/13 02:37:12;;;;;;;9.48;1.83;;;10.50;99.90;;;;;;4976222;28;20026;-86
2022/05/13 02:39:37;;;;;;;15.20;2.78;;;10.40;99.90;;;;;;4992410;28;20043;-86
2022/05/13 02:42:03;;;;;;;7.25;1.73;;;10.40;99.90;;;;;;4975804;28;20027;-85
2022/05/13 02:44:29;;;;;;;7.28;1.60;;;10.50;99.90;;;;;;4973593;28;20035;-85
2022/05/13 02:46:54;;;;;;;10.13;1.77;;;10.50;99.90;;;;;;4973237;28;20026;-85
2022/05/13 02:49:21;;;;;;;11.70;2.03;;;10.50;99.90;;;;;;4977281;28;20026;-85
2022/05/13 02:51:48;;;;;;;10.68;1.95;;;10.50;99.90;;;;;;4957817;28;20030;-86
2022/05/13 02:54:15;;;;;;;7.00;1.30;;;10.50;99.90;;;;;;4988468;28;20470;-86
2022/05/13 02:56:40;;;;;;;12.73;1.90;;;10.50;99.90;;;;;;4977111;28;20026;-87
2022/05/13 02:59:06;;;;;;;8.75;1.55;;;10.60;99.90;;;;;;4970563;28;20045;-86
2022/05/13 03:01:35;;;;;;;7.80;1.77;;;10.60;99.90;;;;;;4967751;28;20137;-85
2022/05/13 03:04:00;;;;;;;6.18;1.75;;;10.60;99.90;;;;;;4975565;28;20034;-86
2022/05/13 03:06:27;;;;;;;13.02;1.95;;;10.70;99.90;;;;;;4976501;28;20092;-85
2022/05/13 03:08:53;;;;;;;10.70;2.08;;;10.70;99.90;;;;;;4964882;28;20169;-85
2022/05/13 03:11:23;;;;;;;7.03;2.45;;;10.60;99.90;;;;;;4960544;28;20054;-85
2022/05/13 03:13:50;;;;;;;9.38;1.63;;;10.70;99.90;;;;;;4966552;28;20061;-85
2022/05/13 03:16:19;;;;;;;10.73;2.13;;;10.70;99.90;;;;;;4976256;28;20051;-85
2022/05/13 03:18:54;;;;;;;7.65;1.75;;;10.70;99.90;;;;;;4971865;28;20031;-86
2022/05/13 03:21:20;;;;;;;10.85;1.77;;;10.70;99.90;;;;;;4972465;28;20041;-85
2022/05/13 03:23:46;;;;;;;12.35;2.60;;;10.70;99.90;;;;;;4974889;28;20076;-85
2022/05/13 03:26:15;;;;;;;7.60;2.20;;;10.80;99.90;;;;;;4971137;28;20069;-85
2022/05/13 03:28:41;;;;;;;13.55;2.97;;;10.80;99.90;;;;;;4991018;28;20026;-85
2022/05/13 03:31:07;;;;;;;14.07;2.85;;;10.80;99.90;;;;;;4966472;28;20030;-85
2022/05/13 03:33:33;;;;;;;10.65;2.72;;;10.80;99.90;;;;;;4984997;28;20054;-85
2022/05/13 03:35:59;;;;;;;13.52;2.67;;;10.90;99.90;;;;;;4973629;28;20041;-86
2022/05/13 03:38:24;;;;;;;12.85;2.92;;;10.90;99.90;;;;;;4980016;28;20395;-85
2022/05/13 03:40:50;;;;;;;10.77;3.58;;;10.90;99.90;;;;;;4980359;28;20042;-85
2022/05/13 03:43:16;;;;;;;17.85;3.05;;;10.90;99.90;;;;;;4967153;28;20049;-85
2022/05/13 03:45:43;;;;;;;12.00;2.80;;;10.80;99.90;;;;;;4972128;28;20100;-85
2022/05/13 03:48:09;;;;;;;12.52;3.45;;;10.80;99.90;;;;;;4992479;28;20130;-85
2022/05/13 03:50:37;;;;;;;11.80;3.35;;;10.70;99.90;;;;;;4975824;28;20045;-86
2022/05/13 03:53:07;;;;;;;10.50;3.28;;;10.70;99.90;;;;;;4972199;28;20073;-86
2022/05/13 03:55:33;;;;;;;12.75;3.20;;;10.70;99.90;;;;;;4968459;28;20031;-86
2022/05/13 03:57:59;;;;;;;11.68;3.50;;;10.70;99.90;;;;;;4965664;28;20081;-86
2022/05/13 04:00:25;;;;;;;21.45;4.40;;;10.60;99.90;;;;;;4975527;28;20046;-86
2022/05/13 04:02:51;;;;;;;14.82;3.47;;;10.60;99.90;;;;;;4975660;28;20110;-85
2022/05/13 04:10:46;;;;;;;12.35;3.33;;;10.60;99.90;;;;;;4991209;28;20049;-85
2022/05/13 04:16:06;;;;;;;12.85;3.65;;;10.50;99.90;;;;;;4989366;28;20085;-87
2022/05/13 04:18:43;;;;;;;13.13;4.43;;;10.50;99.90;;;;;;4970012;28;20076;-86
2022/05/13 04:21:12;;;;;;;11.05;3.80;;;10.40;99.90;;;;;;4971388;28;20038;-85
2022/05/13 04:23:40;;;;;;;18.20;3.55;;;10.40;99.90;;;;;;4969985;28;20045;-85
2022/05/13 04:26:05;;;;;;;17.95;4.38;;;10.30;99.90;;;;;;4977740;28;20097;-85
2022/05/13 04:28:31;;;;;;;9.60;4.07;;;10.30;99.90;;;;;;4974453;28;20478;-85
2022/05/13 04:30:58;;;;;;;15.65;3.95;;;10.30;99.90;;;;;;4973345;28;20044;-85
2022/05/13 04:33:24;;;;;;;11.77;3.10;;;10.30;99.90;;;;;;4961942;28;20023;-85
2022/05/13 04:35:50;;;;;;;10.57;3.25;;;10.30;99.90;;;;;;4979159;28;20030;-85
2022/05/13 04:38:15;;;;;;;11.80;3.80;;;10.20;99.90;;;;;;4977222;28;20080;-85
2022/05/13 04:40:41;;;;;;;12.30;4.05;;;10.20;99.90;;;;;;4974897;28;20044;-85
2022/05/13 04:43:06;;;;;;;14.73;4.85;;;10.20;99.90;;;;;;4978411;28;20026;-85
2022/05/13 04:45:32;;;;;;;16.38;4.88;;;10.20;99.90;;;;;;4969687;28;20498;-84
2022/05/13 04:48:16;;;;;;;16.08;5.07;;;10.20;99.90;;;;;;4988760;28;20410;-85
2022/05/13 04:50:58;;;;;;;14.00;4.63;;;10.20;99.90;;;;;;4971734;28;20026;-85
2022/05/13 04:53:26;;;;;;;14.43;4.40;;;10.30;99.90;;;;;;4974289;28;20030;-85
2022/05/13 04:55:54;;;;;;;11.20;4.63;;;10.30;99.90;;;;;;4972619;28;20054;-85
2022/05/13 04:58:21;;;;;;;14.02;4.60;;;10.40;99.90;;;;;;4977448;28;20030;-85
2022/05/13 05:00:49;;;;;;;17.20;5.20;;;10.50;99.90;;;;;;4975412;28;20069;-85
2022/05/13 05:03:17;;;;;;;10.63;3.95;;;10.60;99.90;;;;;;4977827;28;20019;-86
2022/05/13 05:05:43;;;;;;;21.45;4.68;;;10.60;99.90;;;;;;4976597;28;20030;-85
2022/05/13 05:08:10;;;;;;;16.10;4.45;;;10.80;99.90;;;;;;4994955;28;20066;-85
2022/05/13 05:10:36;;;;;;;17.73;4.85;;;10.90;99.90;;;;;;4976465;28;20652;-85
2022/05/13 05:13:02;;;;;;;17.00;5.38;;;11.00;99.90;;;;;;4974828;28;20398;-84
2022/05/13 05:15:27;;;;;;;15.75;5.32;;;11.00;99.90;;;;;;4974907;28;20033;-85
2022/05/13 05:17:53;;;;;;;15.35;6.25;;;11.10;99.90;;;;;;4966003;28;20062;-85
2022/05/13 05:20:20;;;;;;;16.40;5.30;;;11.10;99.90;;;;;;4978284;28;20090;-85
2022/05/13 05:22:46;;;;;;;12.63;4.63;;;11.20;99.90;;;;;;4974308;28;20121;-84
2022/05/13 05:25:14;;;;;;;16.38;5.03;;;11.40;99.90;;;;;;4988594;28;20121;-85
2022/05/13 05:27:41;;;;;;;13.43;4.65;;;11.70;99.90;;;;;;4977558;28;20062;-84
2022/05/13 05:30:08;;;;;;;18.10;6.00;;;11.90;99.90;;;;;;4976256;28;20018;-85
2022/05/13 05:32:34;;;;;;;17.15;5.53;;;11.90;99.90;;;;;;4973698;28;20033;-85
2022/05/13 05:34:59;;;;;;;13.50;4.95;;;11.90;99.90;;;;;;4968783;28;20113;-84
2022/05/13 05:37:25;;;;;;;15.73;5.25;;;12.00;99.90;;;;;;4980187;28;20034;-85
2022/05/13 05:39:51;;;;;;;19.92;5.07;;;12.10;99.90;;;;;;4968588;28;20126;-85
2022/05/13 05:42:16;;;;;;;13.60;5.32;;;12.20;99.90;;;;;;4966646;28;20035;-84
2022/05/13 05:44:42;;;;;;;13.15;5.30;;;12.40;99.90;;;;;;4972519;28;20037;-86
2022/05/13 05:47:07;;;;;;;19.40;5.88;;;12.50;99.90;;;;;;4963818;28;20507;-85
2022/05/13 05:49:33;;;;;;;18.83;6.05;;;12.80;99.90;;;;;;4972992;28;20110;-85
2022/05/13 05:51:59;;;;;;;21.05;6.18;;;13.00;99.90;;;;;;4976192;28;20031;-84
2022/05/13 05:57:14;;;;;;;13.88;5.70;;;13.20;99.90;;;;;;4978545;28;20041;-83
2022/05/13 05:59:41;;;;;;;16.73;5.75;;;13.30;99.90;;;;;;4986370;28;20067;-85
2022/05/13 06:02:07;;;;;;;19.17;6.45;;;13.30;99.90;;;;;;4985542;28;20026;-85
2022/05/13 06:04:33;;;;;;;19.00;6.05;;;13.40;99.90;;;;;;4986589;28;20093;-84
2022/05/13 06:06:59;;;;;;;17.08;6.45;;;13.30;99.90;;;;;;4969133;28;20470;-85
2022/05/13 06:09:25;;;;;;;18.50;6.03;;;13.40;99.90;;;;;;4976476;28;20046;-84
2022/05/13 06:11:50;;;;;;;19.08;6.15;;;13.40;99.90;;;;;;4974543;28;20494;-85
2022/05/13 06:14:16;;;;;;;21.05;5.88;;;13.40;99.90;;;;;;4969440;28;20074;-85
2022/05/13 06:16:42;;;;;;;22.10;7.15;;;13.40;99.90;;;;;;4970984;28;20042;-84
2022/05/13 06:19:08;;;;;;;20.73;7.50;;;13.40;99.90;;;;;;4985329;28;20034;-85
2022/05/13 06:21:36;;;;;;;15.40;6.70;;;13.40;99.90;;;;;;4964280;28;20066;-85
2022/05/13 06:24:02;;;;;;;15.20;7.80;;;13.40;99.90;;;;;;4970156;28;20502;-84
2022/05/13 06:26:28;;;;;;;19.13;8.18;;;13.40;99.90;;;;;;4975417;28;20035;-85
2022/05/13 06:28:54;;;;;;;17.30;7.75;;;13.50;99.90;;;;;;4993829;28;20018;-84
2022/05/13 06:31:20;;;;;;;27.80;9.80;;;13.60;99.90;;;;;;4968021;28;20124;-84
2022/05/13 06:33:47;;;;;;;21.15;7.97;;;13.60;99.90;;;;;;4971243;28;20041;-85
2022/05/13 06:36:13;;;;;;;23.02;8.50;;;13.70;99.90;;;;;;4966887;28;20022;-84
2022/05/13 06:38:38;;;;;;;19.23;8.50;;;13.70;99.90;;;;;;4967989;28;20065;-85
2022/05/13 06:41:04;;;;;;;18.98;8.07;;;13.80;99.90;;;;;;4971532;28;20140;-84
2022/05/13 06:43:29;;;;;;;26.02;10.13;;;13.90;99.90;;;;;;4970399;28;20023;-85
2022/05/13 06:45:55;;;;;;;18.55;8.18;;;13.90;99.90;;;;;;4971789;28;20027;-85
2022/05/13 06:48:21;;;;;;;21.88;8.85;;;14.00;99.90;;;;;;4980735;28;20018;-83
2022/05/13 06:50:48;;;;;;;19.20;8.50;;;14.10;99.90;;;;;;4971135;28;20117;-85
2022/05/13 06:53:18;;;;;;;21.60;9.57;;;14.10;99.90;;;;;;4974499;28;20032;-83
2022/05/13 06:55:44;;;;;;;24.10;9.70;;;14.20;99.90;;;;;;4974892;28;20048;-84
2022/05/13 06:58:11;;;;;;;20.85;7.82;;;14.20;99.90;;;;;;4976557;28;20542;-84
2022/05/13 07:00:37;;;;;;;19.02;8.63;;;14.30;99.90;;;;;;4972803;28;20442;-84
2022/05/13 07:03:03;;;;;;;22.15;8.98;;;14.30;99.90;;;;;;4973622;28;20399;-84
2022/05/13 07:05:29;;;;;;;16.60;7.90;;;14.30;99.90;;;;;;4963063;28;20029;-83
2022/05/13 07:07:54;;;;;;;20.58;8.65;;;14.30;99.90;;;;;;4991665;28;20364;-84
2022/05/13 07:10:20;;;;;;;19.15;8.40;;;14.20;99.90;;;;;;4975390;28;20034;-84
2022/05/13 07:12:46;;;;;;;23.80;8.55;;;14.20;99.90;;;;;;4976388;28;20130;-84
2022/05/13 07:15:14;;;;;;;26.15;9.77;;;14.20;99.90;;;;;;4973641;28;20041;-84
2022/05/13 07:17:41;;;;;;;20.08;8.93;;;14.10;99.90;;;;;;4970350;28;20018;-84
2022/05/13 07:20:07;;;;;;;20.02;8.82;;;14.00;99.90;;;;;;4956575;28;20418;-83
2022/05/13 07:22:34;;;;;;;19.45;8.90;;;14.10;99.90;;;;;;4974846;28;20509;-84
2022/05/13 07:25:00;;;;;;;20.33;9.18;;;14.00;99.90;;;;;;4975530;28;20707;-84
2022/05/13 07:27:25;;;;;;;19.17;7.88;;;14.00;99.90;;;;;;4965945;28;20053;-83
2022/05/13 07:29:51;;;;;;;19.42;9.00;;;14.10;99.90;;;;;;4974861;28;20026;-84
2022/05/13 07:32:16;;;;;;;18.17;9.05;;;14.20;99.90;;;;;;4976554;28;20045;-84
2022/05/13 07:34:42;;;;;;;14.07;7.30;;;14.20;99.90;;;;;;4982571;28;20061;-84
2022/05/13 07:37:07;;;;;;;24.02;7.80;;;14.40;99.90;;;;;;4974588;28;20030;-84
2022/05/13 07:42:17;;;;;;;19.00;7.78;;;14.50;99.90;;;;;;4989476;28;20038;-83
2022/05/13 07:44:43;;;;;;;19.92;7.45;;;14.60;99.90;;;;;;4975163;28;20034;-83
2022/05/13 07:47:10;;;;;;;14.25;6.38;;;14.60;99.90;;;;;;4969191;28;20113;-83
2022/05/13 07:49:38;;;;;;;18.35;6.95;;;14.60;99.90;;;;;;4978300;28;20026;-83
2022/05/13 07:52:05;;;;;;;12.75;5.07;;;14.60;99.90;;;;;;4968102;28;20406;-84
2022/05/13 07:54:31;;;;;;;11.38;5.32;;;14.60;99.90;;;;;;4978109;28;20459;-85
2022/05/13 07:56:56;;;;;;;15.45;4.90;;;14.70;99.90;;;;;;4970157;28;20062;-85
2022/05/13 07:59:22;;;;;;;12.80;4.60;;;14.70;99.90;;;;;;4975124;28;20023;-83
2022/05/13 08:01:47;;;;;;;10.18;4.75;;;14.80;99.90;;;;;;4975870;28;20027;-85
2022/05/13 08:04:13;;;;;;;10.40;5.20;;;14.90;99.90;;;;;;4978127;28;20030;-85
2022/05/13 08:06:44;;;;;;;15.35;4.50;;;15.00;99.90;;;;;;4978247;28;20034;-84
2022/05/13 08:09:10;;;;;;;20.23;4.97;;;15.00;99.90;;;;;;4974991;28;20120;-85
2022/05/13 08:11:36;;;;;;;14.48;4.03;;;15.20;99.90;;;;;;4996445;28;20385;-84
2022/05/13 08:14:02;;;;;;;8.85;3.40;;;15.50;99.90;;;;;;4994932;28;20022;-85
2022/05/13 08:16:29;;;;;;;12.15;3.80;;;15.70;99.90;;;;;;4974588;28;20031;-84
2022/05/13 08:18:57;;;;;;;6.95;2.30;;;15.70;99.90;;;;;;4977130;28;20065;-84
2022/05/13 08:21:22;;;;;;;9.15;1.73;;;16.00;99.90;;;;;;4979233;28;20038;-83
2022/05/13 08:23:49;;;;;;;7.75;1.58;;;16.20;99.90;;;;;;4995275;28;20443;-84
2022/05/13 08:26:14;;;;;;;4.45;1.00;;;16.30;99.90;;;;;;4979471;28;20121;-84
2022/05/13 08:28:41;;;;;;;9.10;1.38;;;16.30;99.90;;;;;;4996520;28;20054;-84
2022/05/13 08:31:07;;;;;;;9.73;1.13;;;16.20;99.90;;;;;;4969821;28;20026;-84
2022/05/13 08:33:33;;;;;;;6.05;0.73;;;16.10;99.90;;;;;;4996273;28;20034;-84
2022/05/13 08:36:01;;;;;;;2.95;0.43;;;16.10;99.90;;;;;;4977648;28;20809;-84
2022/05/13 08:38:29;;;;;;;5.72;0.65;;;16.00;99.90;;;;;;4996246;28;20092;-84
2022/05/13 08:41:07;;;;;;;7.25;1.08;;;15.90;99.90;;;;;;4981371;28;20074;-84
2022/05/13 08:43:53;;;;;;;6.85;0.60;;;15.90;99.90;;;;;;4974439;28;20034;-84
2022/05/13 08:46:56;;;;;;;7.47;0.57;;;16.00;99.90;;;;;;4976286;28;20046;-83
2022/05/13 08:49:40;;;;;;;12.95;1.33;;;16.10;99.90;;;;;;4981234;28;20487;-84
2022/05/13 08:55:35;;;;;;;5.07;0.80;;;16.50;99.50;;;;;;4983861;28;20061;-84
2022/05/13 08:58:04;;;;;;;2.42;0.50;;;17.00;99.20;;;;;;4985213;28;20057;-84
2022/05/13 09:00:36;;;;;;;5.28;0.40;;;17.20;98.20;;;;;;4978077;28;20034;-85
2022/05/13 09:03:27;;;;;;;9.23;0.40;;;17.40;97.30;;;;;;4995541;28;20022;-84
2022/05/13 09:06:20;;;;;;;4.03;0.40;;;17.40;96.50;;;;;;4994535;28;20026;-85
2022/05/13 09:08:46;;;;;;;4.93;0.40;;;17.30;96.10;;;;;;4978242;28;20042;-83
2022/05/13 09:11:20;;;;;;;6.03;0.30;;;17.10;95.40;;;;;;4995246;28;20114;-84
2022/05/13 09:14:04;;;;;;;4.65;0.50;;;16.90;94.80;;;;;;4977801;28;20134;-84
2022/05/13 09:16:47;;;;;;;2.85;0.32;;;16.70;95.00;;;;;;4980408;28;20391;-84
2022/05/13 09:19:28;;;;;;;4.50;0.40;;;16.80;95.40;;;;;;4988481;28;20026;-84
2022/05/13 09:21:53;;;;;;;3.55;0.65;;;16.90;96.00;;;;;;4994251;28;20046;-84
2022/05/13 09:24:20;;;;;;;4.55;0.47;;;17.20;95.70;;;;;;4994502;28;20530;-84
2022/05/13 09:26:45;;;;;;;5.72;0.77;;;17.50;94.80;;;;;;4976968;28;20027;-84
2022/05/13 09:29:17;;;;;;;3.80;0.50;;;17.70;94.20;;;;;;4960217;28;20058;-83
2022/05/13 09:32:04;;;;;;;11.45;1.00;;;17.60;94.10;;;;;;4975615;28;20034;-84
2022/05/13 09:34:30;;;;;;;8.38;0.93;;;17.50;94.30;;;;;;4970109;28;20038;-83
2022/05/13 09:37:26;;;;;;;8.75;1.08;;;17.40;94.40;;;;;;4975571;28;20080;-83
2022/05/13 09:40:18;;;;;;;7.57;1.02;;;17.30;94.30;;;;;;4964308;28;20057;-83
2022/05/13 09:42:47;;;;;;;6.32;1.23;;;17.10;94.50;;;;;;4994494;28;20488;-83
2022/05/13 09:45:25;;;;;;;9.15;1.50;;;17.00;94.60;;;;;;4976960;28;20026;-84
2022/05/13 09:48:18;;;;;;;5.13;0.60;;;17.10;95.20;;;;;;4969721;28;20054;-84
2022/05/13 09:50:45;;;;;;;8.85;1.38;;;17.30;94.80;;;;;;4973530;28;20034;-85
2022/05/13 09:53:23;;;;;;;6.97;1.67;;;17.40;94.90;;;;;;4970470;28;20051;-82
2022/05/13 09:55:51;;;;;;;8.00;0.95;;;17.70;94.40;;;;;;4967667;28;20037;-85
2022/05/13 09:58:23;;;;;;;4.65;1.02;;;17.90;94.10;;;;;;4968944;28;20023;-84
2022/05/13 10:00:52;;;;;;;6.63;0.93;;;18.10;93.60;;;;;;4973457;28;20406;-85
2022/05/13 10:03:22;;;;;;;8.38;0.70;;;18.10;92.80;;;;;;4973502;28;20063;-85
2022/05/13 10:06:01;;;;;;;4.30;0.50;;;18.10;92.30;;;;;;4974889;28;20034;-84
2022/05/13 10:08:28;;;;;;;5.20;0.80;;;18.20;92.60;;;;;;4969869;28;20081;-85
2022/05/13 10:14:00;;;;;;;5.55;0.60;;;18.30;91.60;;;;;;4977132;28;20550;-83
2022/05/13 10:16:35;;;;;;;6.07;0.70;;;18.20;91.60;;;;;;4987110;28;20027;-83
2022/05/13 10:19:09;;;;;;;11.60;0.80;;;18.30;91.70;;;;;;4971567;28;20073;-84
2022/05/13 10:22:16;;;;;;;4.78;0.57;;;18.30;90.80;;;;;;4969188;28;20137;-84
2022/05/13 10:24:55;;;;;;;5.28;0.65;;;18.50;90.70;;;;;;4970392;28;20039;-84
2022/05/13 10:27:44;;;;;;;7.07;0.63;;;18.60;90.00;;;;;;4968522;28;20530;-84
2022/05/13 10:30:15;;;;;;;3.95;0.50;;;18.60;89.60;;;;;;4966928;28;20031;-82
2022/05/13 10:32:48;;;;;;;7.40;0.80;;;18.60;88.70;;;;;;4963001;28;20031;-83
2022/05/13 10:35:18;;;;;;;5.68;0.68;;;18.50;88.70;;;;;;4982493;28;20030;-84
2022/05/13 10:38:19;;;;;;;5.05;0.70;;;18.50;89.30;;;;;;4983678;28;20034;-84
2022/05/13 10:40:47;;;;;;;4.60;0.70;;;18.70;89.10;;;;;;4970568;28;20407;-84
2022/05/13 10:43:34;;;;;;;6.32;0.50;;;18.70;87.30;;;;;;4966338;28;20027;-84
2022/05/13 10:46:12;;;;;;;7.03;0.50;;;18.60;87.60;;;;;;4959492;28;20509;-84
2022/05/13 10:48:38;;;;;;;3.05;0.35;;;18.50;86.80;;;;;;4975805;28;20038;-84
2022/05/13 10:51:19;;;;;;;3.50;0.50;;;18.60;85.30;;;;;;4973759;28;20110;-84
2022/05/13 10:53:55;;;;;;;3.65;0.50;;;18.80;84.20;;;;;;4973473;28;22125;-82
2022/05/13 10:56:32;;;;;;;5.13;0.60;;;18.90;83.10;;;;;;4957096;28;20538;-84
2022/05/13 10:59:26;;;;;;;4.95;0.50;;;18.90;82.70;;;;;;4964044;28;20040;-83
2022/05/13 11:02:26;;;;;;;2.67;0.50;;;18.80;83.40;;;;;;4973619;28;20038;-82
2022/05/13 11:05:07;;;;;;;3.03;0.38;;;18.80;82.70;;;;;;4968900;28;20098;-83
2022/05/13 11:07:59;;;;;;;6.67;0.97;;;18.70;80.50;;;;;;4966008;28;20057;-83
2022/05/13 11:10:41;;;;;;;4.72;0.30;;;18.70;80.10;;;;;;4978227;28;20034;-84
2022/05/13 11:13:41;;;;;;;3.83;0.80;;;18.70;81.10;;;;;;4970167;28;20457;-84
2022/05/13 11:16:35;;;;;;;2.63;0.40;;;18.90;81.20;;;;;;4969041;28;20486;-83
2022/05/13 11:19:05;;;;;;;3.35;0.93;;;18.90;80.90;;;;;;4969353;28;20053;-84
2022/05/13 11:21:56;;;;;;;6.03;1.10;;;18.90;80.20;;;;;;4963880;28;20050;-83
2022/05/13 11:27:39;;;;;;;3.72;0.45;;;18.70;79.00;;;;;;4982080;28;20049;-84
2022/05/13 11:30:28;;;;;;;5.10;0.50;;;18.50;79.50;;;;;;4969574;28;20113;-84
2022/05/13 11:33:17;;;;;;;3.17;0.60;;;18.50;80.60;;;;;;4972221;28;20057;-84
2022/05/13 11:35:57;;;;;;;3.90;0.50;;;18.60;81.10;;;;;;4983198;28;20030;-84
2022/05/13 11:38:40;;;;;;;2.95;0.40;;;18.90;80.90;;;;;;4967563;28;20035;-84
2022/05/13 11:41:11;;;;;;;4.07;0.43;;;19.20;80.00;;;;;;4973143;28;20129;-85
2022/05/13 11:43:51;;;;;;;4.35;1.30;;;19.50;79.20;;;;;;4964657;28;20033;-84
2022/05/13 11:46:26;;;;;;;4.53;0.60;;;19.40;77.90;;;;;;4979616;28;20064;-84
2022/05/13 11:49:10;;;;;;;4.13;0.40;;;19.30;79.40;;;;;;4966005;28;20470;-83
2022/05/13 11:51:36;;;;;;;3.47;0.55;;;19.40;78.70;;;;;;4973733;28;20038;-84
2022/05/13 11:54:05;;;;;;;3.33;0.52;;;19.50;77.70;;;;;;4966445;28;20081;-83
2022/05/13 11:56:37;;;;;;;5.22;0.40;;;19.50;76.70;;;;;;4966797;28;20081;-83
2022/05/13 11:59:37;;;;;;;4.80;0.40;;;19.50;76.70;;;;;;4971505;28;20084;-83
2022/05/13 12:02:13;;;;;;;6.72;0.95;;;19.50;76.70;;;;;;4969251;28;20081;-83
2022/05/13 12:05:24;;;;;;;3.85;0.47;;;19.40;77.70;;;;;;4973649;28;20038;-83
2022/05/13 12:08:07;;;;;;;5.00;0.45;;;19.30;78.20;;;;;;4967033;28;20086;-84
2022/05/13 12:10:51;;;;;;;4.65;0.40;;;19.20;78.30;;;;;;4986034;28;20498;-84
2022/05/13 12:13:33;;;;;;;2.75;0.50;;;19.10;77.90;;;;;;4978978;28;20106;-84
2022/05/13 12:16:15;;;;;;;2.20;0.40;;;19.20;76.40;;;;;;4969633;28;20041;-83
2022/05/13 12:19:19;;;;;;;2.83;0.60;;;19.60;75.90;;;;;;4982614;28;20410;-83
2022/05/13 12:22:11;;;;;;;3.35;0.30;;;19.70;73.80;;;;;;4979365;28;21530;-83
2022/05/13 12:25:07;;;;;;;9.88;0.43;;;19.60;74.60;;;;;;4957749;28;20051;-84
2022/05/13 12:28:02;;;;;;;3.75;0.55;;;19.50;75.40;;;;;;4978714;28;20038;-83
2022/05/13 12:30:39;;;;;;;3.33;0.50;;;19.30;75.90;;;;;;4978902;28;20061;-83
2022/05/13 12:33:20;;;;;;;5.30;0.40;;;19.30;76.10;;;;;;4980985;28;20749;-84
2022/05/13 12:39:02;;;;;;;3.35;0.40;;;19.40;75.20;;;;;;4991087;28;20041;-84
2022/05/13 12:41:38;;;;;;;;;;;19.70;74.80;;;;;;4960187;28;20083;-84
2022/05/13 12:44:26;;;;;;;7.13;0.47;;;19.80;74.10;;;;;;4983394;28;20060;-84
2022/05/13 12:47:13;;;;;;;2.67;0.47;;;19.90;75.00;;;;;;4965625;28;20031;-84
2022/05/13 12:50:11;;;;;;;1.90;0.50;;;20.10;73.40;;;;;;4965264;28;20018;-84
2022/05/13 12:52:40;;;;;;;4.53;0.32;;;20.30;72.60;;;;;;4974845;28;20179;-84
2022/05/13 12:55:18;;;;;;;3.60;0.30;;;20.60;73.30;;;;;;4975475;28;20437;-84
2022/05/13 12:57:55;;;;;;;5.18;0.40;;;20.80;71.10;;;;;;4982198;28;20033;-84
2022/05/13 13:00:36;;;;;;;5.25;0.40;;;20.80;70.90;;;;;;4970542;28;20555;-85
2022/05/13 13:03:06;;;;;;;2.67;0.50;;;20.70;70.30;;;;;;4979172;28;20098;-85
2022/05/13 13:05:34;;;;;;;3.80;0.47;;;20.60;70.40;;;;;;4980367;28;20043;-84
2022/05/13 13:08:12;;;;;;;1.90;0.30;;;20.80;70.10;;;;;;4965266;28;20023;-84
2022/05/13 13:10:48;;;;;;;6.10;0.30;;;20.90;69.60;;;;;;4976219;28;20121;-84
2022/05/13 13:13:33;;;;;;;5.10;0.43;;;21.20;68.70;;;;;;4977612;28;20029;-84
2022/05/13 13:16:08;;;;;;;2.17;0.40;;;21.30;68.10;;;;;;4968623;28;20035;-84
2022/05/13 13:18:37;;;;;;;2.35;0.30;;;21.40;67.10;;;;;;4972564;28;20085;-84
2022/05/13 13:21:09;;;;;;;5.07;0.38;;;21.60;67.00;;;;;;4973888;28;20423;-84
2022/05/13 13:23:40;;;;;;;5.70;0.45;;;21.60;65.90;;;;;;4968903;28;20041;-84
2022/05/13 13:26:08;;;;;;;3.10;0.60;;;21.60;65.60;;;;;;4989601;28;20058;-84
2022/05/13 13:28:36;;;;;;;6.05;0.47;;;21.70;65.20;;;;;;4994889;28;20345;-84
2022/05/13 13:31:06;;;;;;;2.40;0.60;;;21.70;65.60;;;;;;4963951;28;20042;-84
2022/05/13 13:33:37;;;;;;;7.05;0.50;;;21.70;65.30;;;;;;4966603;28;20376;-84
2022/05/13 13:36:20;;;;;;;4.78;0.50;;;21.80;65.40;;;;;;4977056;28;20081;-84